createdAt,value
2023-03-29T00:00:50.742Z,3.16
2023-03-29T00:03:17.056Z,3.31
2023-03-29T00:05:43.226Z,3.69
2023-03-29T00:08:09.359Z,3.50
2023-03-29T00:10:35.448Z,3.54
2023-03-29T00:13:01.555Z,3.60
2023-03-29T00:15:27.654Z,3.61
2023-03-29T00:17:53.815Z,3.63
2023-03-29T00:20:19.942Z,3.66
2023-03-29T00:22:46.070Z,3.57
2023-03-29T00:25:12.173Z,3.87
2023-03-29T00:27:38.258Z,3.79
2023-03-29T00:30:04.348Z,3.33
2023-03-29T00:32:30.489Z,3.60
2023-03-29T00:34:56.611Z,3.62
2023-03-29T00:37:22.725Z,3.27
2023-03-29T00:39:48.868Z,3.65
2023-03-29T00:42:15.063Z,3.70
2023-03-29T00:44:41.175Z,3.79
2023-03-29T00:47:07.281Z,2.70
2023-03-29T00:49:33.393Z,2.84
2023-03-29T00:51:59.537Z,3.12
2023-03-29T00:54:25.653Z,3.12
2023-03-29T00:56:51.799Z,3.08
2023-03-29T00:59:17.964Z,3.49
2023-03-29T01:01:44.141Z,3.78
2023-03-29T01:04:10.280Z,3.61
2023-03-29T01:06:36.554Z,3.53
2023-03-29T01:09:02.706Z,3.44
2023-03-29T01:11:28.803Z,3.62
2023-03-29T01:13:54.925Z,3.47
2023-03-29T01:16:21.033Z,2.63
2023-03-29T01:18:47.188Z,2.55
2023-03-29T01:21:13.330Z,2.51
2023-03-29T01:23:39.429Z,2.01
2023-03-29T01:26:05.572Z,1.27
2023-03-29T01:28:31.679Z,1.25
2023-03-29T01:30:57.821Z,1.30
2023-03-29T01:33:23.917Z,1.18
2023-03-29T01:35:50.063Z,1.31
2023-03-29T01:38:16.255Z,1.49
2023-03-29T01:40:42.404Z,2.10
2023-03-29T01:43:08.553Z,2.59
2023-03-29T01:45:34.632Z,2.88
2023-03-29T01:48:00.821Z,3.03
2023-03-29T01:50:27.006Z,3.02
2023-03-29T01:52:53.127Z,2.62
2023-03-29T01:55:19.245Z,1.81
2023-03-29T01:57:45.350Z,2.05
2023-03-29T02:00:11.480Z,2.55
2023-03-29T02:02:37.807Z,2.86
2023-03-29T02:05:04.113Z,3.20
2023-03-29T02:07:30.285Z,3.42
2023-03-29T02:09:56.403Z,3.36
2023-03-29T02:12:22.528Z,3.56
2023-03-29T02:14:48.823Z,3.50
2023-03-29T02:17:14.945Z,3.33
2023-03-29T02:19:41.036Z,3.00
2023-03-29T02:22:07.144Z,3.26
2023-03-29T02:24:33.243Z,3.25
2023-03-29T02:26:59.358Z,3.32
2023-03-29T02:29:25.473Z,3.54
2023-03-29T02:31:51.671Z,3.36
2023-03-29T02:34:17.784Z,3.49
2023-03-29T02:36:43.884Z,3.60
2023-03-29T02:39:09.993Z,3.33
2023-03-29T02:41:36.079Z,2.85
2023-03-29T02:44:02.163Z,2.91
2023-03-29T02:46:28.300Z,3.02
2023-03-29T02:48:54.471Z,3.05
2023-03-29T02:51:20.559Z,3.37
2023-03-29T02:53:46.650Z,3.25
2023-03-29T02:56:12.773Z,3.09
2023-03-29T02:58:38.878Z,3.13
2023-03-29T03:01:04.963Z,2.70
2023-03-29T03:03:31.147Z,2.41
2023-03-29T03:05:57.320Z,2.89
2023-03-29T03:08:23.427Z,2.89
2023-03-29T03:10:49.668Z,2.91
2023-03-29T03:13:15.764Z,3.29
2023-03-29T03:15:41.861Z,2.98
2023-03-29T03:18:08.020Z,2.54
2023-03-29T03:20:34.113Z,1.43
2023-03-29T03:23:00.332Z,1.36
2023-03-29T03:25:26.450Z,1.20
2023-03-29T03:27:52.740Z,1.60
2023-03-29T03:30:18.839Z,1.76
2023-03-29T03:32:45.031Z,2.54
2023-03-29T03:35:11.174Z,2.80
2023-03-29T03:37:37.496Z,3.09
2023-03-29T03:40:03.617Z,3.19
2023-03-29T03:42:29.756Z,3.04
2023-03-29T03:44:55.866Z,3.07
2023-03-29T03:47:21.994Z,3.15
2023-03-29T03:49:48.139Z,3.40
2023-03-29T03:52:14.260Z,3.70
2023-03-29T03:54:40.388Z,3.66
2023-03-29T03:57:06.541Z,3.78
2023-03-29T03:59:32.672Z,3.95
2023-03-29T04:01:58.793Z,3.62
2023-03-29T04:04:25.013Z,2.16
2023-03-29T04:06:51.174Z,2.49
2023-03-29T04:09:17.282Z,2.87
2023-03-29T04:11:43.379Z,2.94
2023-03-29T04:14:09.509Z,2.64
2023-03-29T04:16:35.743Z,2.95
2023-03-29T04:19:02.184Z,2.92
2023-03-29T04:21:28.347Z,3.31
2023-03-29T04:23:54.476Z,3.54
2023-03-29T04:26:20.721Z,3.81
2023-03-29T04:28:46.962Z,3.88
2023-03-29T04:31:13.310Z,3.92
2023-03-29T04:33:39.520Z,4.03
2023-03-29T04:36:05.676Z,3.91
2023-03-29T04:38:31.822Z,3.42
2023-03-29T04:40:57.924Z,3.62
2023-03-29T04:43:24.090Z,3.53
2023-03-29T04:45:50.201Z,3.56
2023-03-29T04:48:16.297Z,3.57
2023-03-29T04:50:42.528Z,3.77
2023-03-29T04:53:08.655Z,3.63
2023-03-29T04:55:34.740Z,3.63
2023-03-29T04:58:00.869Z,3.58
2023-03-29T05:00:26.991Z,3.26
2023-03-29T05:02:53.172Z,3.37
2023-03-29T05:05:19.329Z,3.37
2023-03-29T05:07:45.439Z,3.13
2023-03-29T05:10:11.537Z,3.20
2023-03-29T05:12:38.034Z,3.21
2023-03-29T05:15:04.140Z,3.27
2023-03-29T05:17:30.380Z,3.30
2023-03-29T05:19:56.499Z,3.39
2023-03-29T05:22:22.621Z,3.79
2023-03-29T05:24:48.724Z,3.70
2023-03-29T05:27:14.836Z,3.79
2023-03-29T05:29:40.943Z,3.87
2023-03-29T05:32:07.210Z,3.90
2023-03-29T05:34:33.449Z,4.07
2023-03-29T05:36:59.551Z,4.37
2023-03-29T05:39:25.667Z,2.92
2023-03-29T05:41:51.772Z,1.46
2023-03-29T05:44:17.884Z,1.57
2023-03-29T05:46:43.965Z,1.78
2023-03-29T05:49:10.087Z,1.46
2023-03-29T05:51:36.206Z,2.24
2023-03-29T05:54:02.325Z,2.57
2023-03-29T05:56:28.424Z,2.93
2023-03-29T05:58:55.173Z,2.96
2023-03-29T06:01:21.394Z,3.23
2023-03-29T06:03:47.699Z,3.12
2023-03-29T06:06:13.942Z,3.35
2023-03-29T06:08:40.023Z,3.52
2023-03-29T06:11:06.482Z,3.49
2023-03-29T06:13:32.856Z,3.61
2023-03-29T06:15:58.937Z,3.72
2023-03-29T06:18:25.047Z,3.96
2023-03-29T06:20:51.151Z,3.91
2023-03-29T06:23:17.278Z,3.86
2023-03-29T06:25:43.454Z,4.11
2023-03-29T06:28:09.649Z,4.30
2023-03-29T06:30:35.767Z,4.58
2023-03-29T06:33:02.052Z,4.79
2023-03-29T06:35:28.285Z,4.35
2023-03-29T06:37:54.479Z,3.81
2023-03-29T06:40:20.631Z,3.21
2023-03-29T06:42:46.731Z,3.41
2023-03-29T06:45:12.834Z,3.63
2023-03-29T06:47:38.977Z,3.94
2023-03-29T06:50:05.123Z,4.36
2023-03-29T06:52:31.254Z,4.70
2023-03-29T06:54:57.339Z,4.69
2023-03-29T06:57:23.507Z,4.75
2023-03-29T06:59:49.626Z,4.98
2023-03-29T07:02:15.880Z,4.80
2023-03-29T07:04:42.208Z,4.97
2023-03-29T07:07:08.342Z,5.04
2023-03-29T07:09:34.426Z,5.28
2023-03-29T07:12:00.547Z,5.44
2023-03-29T07:14:26.736Z,5.82
2023-03-29T07:16:52.851Z,5.69
2023-03-29T07:19:18.997Z,5.78
2023-03-29T07:21:45.145Z,6.19
2023-03-29T07:24:11.239Z,4.82
2023-03-29T07:26:37.937Z,5.35
2023-03-29T07:29:04.108Z,5.63
2023-03-29T07:31:30.247Z,5.77
2023-03-29T07:33:56.411Z,5.80
2023-03-29T07:36:22.608Z,5.61
2023-03-29T07:38:48.751Z,6.06
2023-03-29T07:41:14.846Z,6.49
2023-03-29T07:43:40.943Z,6.74
2023-03-29T07:46:07.108Z,6.70
2023-03-29T07:48:33.237Z,5.73
2023-03-29T07:50:59.430Z,6.21
2023-03-29T07:53:25.590Z,6.79
2023-03-29T07:55:51.685Z,7.04
2023-03-29T07:58:17.797Z,7.37
2023-03-29T08:00:43.929Z,7.76
2023-03-29T08:03:10.105Z,7.65
2023-03-29T08:05:41.222Z,7.57
2023-03-29T08:08:07.982Z,7.85
2023-03-29T08:10:34.093Z,7.86
2023-03-29T08:13:00.192Z,7.80
2023-03-29T08:15:26.281Z,7.85
2023-03-29T08:17:52.545Z,7.76
2023-03-29T08:20:18.723Z,7.37
2023-03-29T08:22:44.865Z,7.52
2023-03-29T08:25:11.087Z,7.27
2023-03-29T08:27:37.289Z,7.27
2023-03-29T08:30:03.387Z,7.53
2023-03-29T08:32:29.505Z,7.51
2023-03-29T08:34:55.665Z,7.48
2023-03-29T08:37:21.775Z,7.41
2023-03-29T08:39:47.899Z,7.86
2023-03-29T08:42:14.029Z,8.10
2023-03-29T08:44:40.117Z,8.14
2023-03-29T08:47:06.204Z,7.68
2023-03-29T08:49:32.365Z,7.61
2023-03-29T08:51:58.461Z,7.43
2023-03-29T08:54:24.544Z,7.63
2023-03-29T08:56:50.672Z,7.95
2023-03-29T08:59:16.950Z,8.15
2023-03-29T09:01:43.143Z,8.06
2023-03-29T09:04:09.392Z,8.48
2023-03-29T09:06:35.553Z,9.01
2023-03-29T09:09:01.666Z,9.25
2023-03-29T09:11:27.926Z,9.70
2023-03-29T09:13:54.051Z,9.95
2023-03-29T09:16:20.216Z,10.00
2023-03-29T09:18:46.376Z,9.90
2023-03-29T09:21:12.477Z,10.11
2023-03-29T09:23:38.581Z,10.18
2023-03-29T09:26:04.737Z,10.12
2023-03-29T09:28:30.848Z,10.01
2023-03-29T09:30:56.947Z,9.69
2023-03-29T09:33:23.038Z,9.35
2023-03-29T09:35:49.201Z,9.51
2023-03-29T09:38:15.338Z,9.33
2023-03-29T09:40:41.450Z,8.82
2023-03-29T09:43:07.552Z,9.12
2023-03-29T09:45:33.671Z,9.14
2023-03-29T09:47:59.840Z,6.88
2023-03-29T09:50:31.594Z,5.48
2023-03-29T09:52:58.215Z,5.38
2023-03-29T09:55:24.316Z,5.75
2023-03-29T09:57:50.505Z,6.51
2023-03-29T10:00:16.710Z,7.47
2023-03-29T10:02:42.842Z,7.68
2023-03-29T10:05:09.018Z,8.70
2023-03-29T10:07:35.133Z,9.14
2023-03-29T10:10:01.231Z,9.47
2023-03-29T10:12:27.321Z,9.67
2023-03-29T10:14:53.985Z,9.75
2023-03-29T10:17:20.307Z,10.02
2023-03-29T10:19:46.433Z,10.02
2023-03-29T10:22:12.546Z,10.08
2023-03-29T10:24:38.649Z,10.54
2023-03-29T10:27:04.760Z,10.68
2023-03-29T10:29:30.860Z,11.15
2023-03-29T10:31:56.990Z,11.53
2023-03-29T10:34:23.127Z,11.49
2023-03-29T10:36:49.234Z,11.65
2023-03-29T10:39:15.374Z,11.76
2023-03-29T10:41:41.478Z,11.71
2023-03-29T10:44:07.594Z,11.71
2023-03-29T10:46:33.903Z,12.01
2023-03-29T10:49:00.058Z,12.16
2023-03-29T10:51:26.173Z,12.36
2023-03-29T10:53:52.331Z,12.64
2023-03-29T10:56:18.442Z,12.63
2023-03-29T10:58:44.668Z,12.51
2023-03-29T11:01:10.756Z,12.29
2023-03-29T11:03:36.927Z,12.16
2023-03-29T11:06:03.114Z,12.19
2023-03-29T11:08:31.784Z,12.11
2023-03-29T11:10:58.150Z,12.30
2023-03-29T11:13:24.272Z,12.28
2023-03-29T11:15:50.382Z,11.75
2023-03-29T11:18:16.497Z,11.18
2023-03-29T11:20:42.648Z,7.96
2023-03-29T11:23:08.725Z,7.12
2023-03-29T11:25:34.845Z,6.99
2023-03-29T11:28:00.955Z,7.45
2023-03-29T11:30:27.072Z,7.83
2023-03-29T11:32:53.387Z,8.85
2023-03-29T11:35:19.524Z,9.26
2023-03-29T11:37:45.621Z,9.42
2023-03-29T11:40:11.817Z,9.58
2023-03-29T11:42:38.135Z,9.94
2023-03-29T11:45:04.287Z,9.61
2023-03-29T11:47:30.418Z,9.79
2023-03-29T11:49:56.528Z,9.90
2023-03-29T11:52:22.627Z,10.03
2023-03-29T11:54:48.789Z,10.05
2023-03-29T11:57:15.016Z,10.28
2023-03-29T11:59:41.149Z,10.45
2023-03-29T12:02:07.379Z,10.00
2023-03-29T12:04:33.484Z,10.22
2023-03-29T12:06:59.591Z,10.54
2023-03-29T12:09:25.686Z,10.53
2023-03-29T12:11:51.774Z,10.41
2023-03-29T12:14:17.900Z,10.47
2023-03-29T12:16:44.031Z,10.61
2023-03-29T12:19:10.132Z,10.66
2023-03-29T12:21:36.255Z,10.89
2023-03-29T12:24:02.365Z,10.65
2023-03-29T12:26:28.475Z,10.09
2023-03-29T12:28:54.566Z,9.66
2023-03-29T12:31:20.677Z,9.58
2023-03-29T12:33:46.798Z,9.85
2023-03-29T12:36:12.964Z,9.70
2023-03-29T12:38:39.097Z,9.76
2023-03-29T12:41:05.408Z,9.91
2023-03-29T12:43:31.558Z,9.84
2023-03-29T12:45:57.695Z,9.96
2023-03-29T12:48:23.797Z,9.89
2023-03-29T12:50:49.908Z,9.57
2023-03-29T12:53:16.013Z,9.44
2023-03-29T12:55:42.116Z,9.85
2023-03-29T12:58:08.205Z,9.73
2023-03-29T13:00:34.448Z,9.67
2023-03-29T13:03:00.604Z,9.72
2023-03-29T13:05:26.990Z,9.33
2023-03-29T13:07:53.155Z,9.22
2023-03-29T13:10:19.259Z,9.03
2023-03-29T13:12:45.362Z,8.91
2023-03-29T13:15:11.453Z,9.00
2023-03-29T13:17:37.549Z,9.16
2023-03-29T13:20:03.664Z,9.29
2023-03-29T13:22:30.113Z,9.42
2023-03-29T13:24:56.266Z,9.51
2023-03-29T13:27:22.389Z,9.35
2023-03-29T13:29:48.479Z,9.43
2023-03-29T13:32:14.629Z,9.63
2023-03-29T13:34:40.714Z,9.55
2023-03-29T13:37:06.831Z,9.73
2023-03-29T13:39:32.953Z,9.76
2023-03-29T13:41:59.057Z,9.74
2023-03-29T13:44:25.181Z,9.76
2023-03-29T13:46:51.331Z,9.66
2023-03-29T13:49:17.496Z,9.79
2023-03-29T13:51:43.657Z,9.86
2023-03-29T13:54:09.763Z,10.03
2023-03-29T13:56:35.880Z,9.93
2023-03-29T13:59:01.995Z,9.80
2023-03-29T14:01:28.203Z,9.53
2023-03-29T14:03:54.382Z,9.12
2023-03-29T14:06:20.491Z,9.23
2023-03-29T14:08:46.637Z,9.27
2023-03-29T14:11:12.758Z,9.49
2023-03-29T14:13:38.854Z,9.76
2023-03-29T14:16:05.115Z,9.81
2023-03-29T14:18:31.407Z,10.12
2023-03-29T14:20:57.498Z,10.11
2023-03-29T14:23:23.596Z,9.45
2023-03-29T14:25:49.709Z,9.64
2023-03-29T14:28:15.816Z,9.69
2023-03-29T14:30:41.938Z,9.83
2023-03-29T14:33:08.103Z,9.56
2023-03-29T14:35:34.433Z,9.19
2023-03-29T14:38:00.609Z,9.01
2023-03-29T14:40:26.713Z,9.09
2023-03-29T14:42:52.922Z,9.70
2023-03-29T14:45:19.067Z,9.96
2023-03-29T14:47:45.223Z,9.96
2023-03-29T14:50:11.380Z,9.94
2023-03-29T14:52:37.480Z,10.20
2023-03-29T14:55:03.579Z,10.55
2023-03-29T14:57:29.785Z,10.61
2023-03-29T14:59:56.007Z,10.95
2023-03-29T15:02:22.144Z,11.14
2023-03-29T15:04:48.271Z,11.07
2023-03-29T15:07:14.389Z,11.25
2023-03-29T15:09:40.494Z,11.34
2023-03-29T15:12:06.601Z,11.52
2023-03-29T15:14:32.717Z,11.61
2023-03-29T15:16:58.820Z,11.63
2023-03-29T15:19:24.917Z,11.52
2023-03-29T15:21:51.032Z,11.42
2023-03-29T15:24:17.114Z,11.33
2023-03-29T15:26:43.288Z,11.04
2023-03-29T15:29:09.415Z,10.94
2023-03-29T15:31:35.541Z,10.59
2023-03-29T15:34:01.687Z,10.51
2023-03-29T15:36:27.829Z,10.44
2023-03-29T15:38:53.938Z,10.63
2023-03-29T15:41:20.067Z,10.91
2023-03-29T15:43:46.180Z,11.17
2023-03-29T15:46:12.343Z,11.21
2023-03-29T15:48:38.555Z,10.98
2023-03-29T15:51:06.702Z,10.87
2023-03-29T15:53:33.254Z,10.79
2023-03-29T15:55:59.378Z,10.68
2023-03-29T15:58:25.510Z,10.69
2023-03-29T16:00:51.638Z,10.59
2023-03-29T16:03:17.840Z,10.59
2023-03-29T16:05:43.978Z,10.30
2023-03-29T16:08:10.127Z,10.48
2023-03-29T16:10:36.209Z,10.45
2023-03-29T16:13:02.331Z,10.27
2023-03-29T16:15:28.482Z,9.92
2023-03-29T16:17:54.614Z,9.96
2023-03-29T16:20:20.780Z,10.26
2023-03-29T16:22:46.911Z,9.99
2023-03-29T16:25:13.041Z,9.90
2023-03-29T16:27:39.124Z,9.88
2023-03-29T16:30:05.225Z,9.98
2023-03-29T16:32:31.377Z,9.66
2023-03-29T16:34:57.500Z,10.06
2023-03-29T16:37:23.611Z,9.94
2023-03-29T16:39:49.766Z,9.58
2023-03-29T16:42:15.883Z,9.51
2023-03-29T16:44:42.013Z,9.75
2023-03-29T16:47:08.114Z,9.57
2023-03-29T16:49:34.227Z,9.09
2023-03-29T16:52:00.338Z,9.11
2023-03-29T16:54:26.446Z,9.06
2023-03-29T16:56:52.629Z,8.87
2023-03-29T16:59:18.778Z,8.47
2023-03-29T17:01:44.896Z,8.28
2023-03-29T17:04:11.048Z,8.19
2023-03-29T17:06:37.179Z,8.02
2023-03-29T17:09:03.432Z,7.74
2023-03-29T17:11:29.662Z,7.64
2023-03-29T17:13:55.783Z,7.50
2023-03-29T17:16:21.902Z,7.45
2023-03-29T17:18:48.038Z,7.50
2023-03-29T17:21:14.268Z,7.52
2023-03-29T17:23:40.362Z,7.16
2023-03-29T17:26:06.484Z,6.92
2023-03-29T17:28:32.609Z,6.75
2023-03-29T17:30:58.740Z,6.82
2023-03-29T17:33:24.863Z,6.86
2023-03-29T17:35:50.999Z,6.92
2023-03-29T17:38:17.135Z,6.86
2023-03-29T17:40:43.249Z,6.78
2023-03-29T17:43:09.360Z,6.86
2023-03-29T17:45:35.560Z,7.08
2023-03-29T17:48:03.366Z,6.81
2023-03-29T17:50:30.973Z,6.74
2023-03-29T17:52:57.056Z,6.46
2023-03-29T17:55:23.139Z,6.48
2023-03-29T17:57:49.310Z,6.67
2023-03-29T18:00:15.409Z,6.94
2023-03-29T18:02:41.678Z,6.86
2023-03-29T18:05:07.941Z,6.63
2023-03-29T18:07:34.037Z,6.58
2023-03-29T18:10:02.452Z,6.49
2023-03-29T18:12:28.579Z,6.47
2023-03-29T18:14:54.666Z,6.58
2023-03-29T18:17:21.092Z,6.69
2023-03-29T18:19:47.235Z,6.66
2023-03-29T18:22:13.320Z,6.67
2023-03-29T18:24:39.402Z,6.78
2023-03-29T18:27:05.519Z,6.37
2023-03-29T18:29:31.609Z,6.42
2023-03-29T18:31:57.745Z,6.44
2023-03-29T18:34:23.914Z,6.40
2023-03-29T18:36:50.213Z,6.50
2023-03-29T18:39:16.315Z,6.29
2023-03-29T18:41:42.798Z,6.71
2023-03-29T18:44:08.880Z,7.07
2023-03-29T18:46:35.063Z,6.85
2023-03-29T18:49:01.320Z,5.48
2023-03-29T18:51:27.782Z,4.98
2023-03-29T18:53:53.924Z,5.64
2023-03-29T18:56:20.093Z,6.12
2023-03-29T18:58:46.311Z,6.28
2023-03-29T19:01:12.550Z,6.30
2023-03-29T19:03:38.713Z,6.48
2023-03-29T19:06:05.086Z,6.64
2023-03-29T19:11:01.169Z,6.59
2023-03-29T19:13:27.307Z,6.68
2023-03-29T19:15:53.438Z,6.74
2023-03-29T19:18:19.555Z,6.77
2023-03-29T19:20:46.009Z,6.64
2023-03-29T19:23:12.150Z,6.65
2023-03-29T19:25:38.583Z,7.02
2023-03-29T19:28:04.729Z,6.89
2023-03-29T19:30:30.843Z,6.76
2023-03-29T19:32:57.016Z,6.79
2023-03-29T19:35:23.192Z,6.57
2023-03-29T19:37:49.428Z,6.84
2023-03-29T19:40:15.537Z,6.67
2023-03-29T19:42:41.640Z,7.05
2023-03-29T19:45:07.732Z,6.95
2023-03-29T19:47:33.896Z,6.93
2023-03-29T19:50:00.166Z,6.86
2023-03-29T19:52:26.338Z,6.61
2023-03-29T19:54:52.454Z,6.36
2023-03-29T19:57:18.653Z,6.25
2023-03-29T19:59:44.780Z,6.40
2023-03-29T20:02:10.995Z,6.46
2023-03-29T20:04:37.164Z,6.46
2023-03-29T20:07:03.264Z,6.33
2023-03-29T20:09:29.429Z,6.35
2023-03-29T20:11:55.520Z,6.26
2023-03-29T20:14:21.635Z,6.42
2023-03-29T20:16:47.829Z,6.45
2023-03-29T20:19:14.083Z,6.41
2023-03-29T20:21:40.425Z,6.67
2023-03-29T20:24:06.518Z,6.51
2023-03-29T20:26:32.605Z,6.44
2023-03-29T20:28:58.732Z,6.48
2023-03-29T20:31:25.234Z,6.34
2023-03-29T20:33:51.444Z,6.50
2023-03-29T20:36:17.842Z,6.38
2023-03-29T20:38:44.069Z,6.26
2023-03-29T20:41:10.180Z,6.03
2023-03-29T20:43:36.304Z,6.14
2023-03-29T20:46:02.453Z,6.33
2023-03-29T20:48:28.571Z,6.32
2023-03-29T20:50:54.681Z,6.30
2023-03-29T20:53:20.912Z,6.23
2023-03-29T20:55:47.065Z,6.16
2023-03-29T20:58:13.290Z,6.27
2023-03-29T21:00:39.430Z,6.40
2023-03-29T21:03:05.586Z,6.32
2023-03-29T21:05:31.733Z,6.62
2023-03-29T21:07:57.837Z,6.68
2023-03-29T21:10:24.232Z,6.54
2023-03-29T21:12:50.373Z,6.76
2023-03-29T21:15:16.469Z,6.78
2023-03-29T21:17:42.646Z,7.00
2023-03-29T21:20:08.845Z,5.93
2023-03-29T21:22:35.015Z,6.48
2023-03-29T21:25:01.434Z,6.42
2023-03-29T21:27:27.604Z,6.49
2023-03-29T21:29:53.763Z,6.96
2023-03-29T21:32:19.891Z,6.96
2023-03-29T21:34:46.198Z,6.81
2023-03-29T21:37:14.616Z,7.04
2023-03-29T21:39:41.421Z,6.76
2023-03-29T21:42:07.519Z,6.65
2023-03-29T21:44:34.516Z,6.66
2023-03-29T21:47:00.821Z,6.62
2023-03-29T21:49:26.952Z,6.58
2023-03-29T21:51:53.057Z,6.71
2023-03-29T21:54:19.213Z,6.29
2023-03-29T21:56:45.362Z,6.45
2023-03-29T21:59:11.561Z,5.94
2023-03-29T22:01:37.669Z,5.88
2023-03-29T22:04:03.924Z,6.36
2023-03-29T22:06:30.070Z,6.55
2023-03-29T22:08:56.171Z,6.79
2023-03-29T22:11:22.282Z,7.02
2023-03-29T22:13:48.382Z,6.92
2023-03-29T22:16:14.597Z,6.76
2023-03-29T22:18:40.729Z,6.93
2023-03-29T22:21:06.901Z,6.93
2023-03-29T22:23:33.012Z,6.72
2023-03-29T22:25:59.096Z,6.59
2023-03-29T22:28:25.200Z,6.65
2023-03-29T22:30:51.295Z,6.54
2023-03-29T22:33:17.391Z,6.53
2023-03-29T22:35:43.676Z,6.71
2023-03-29T22:38:09.860Z,6.75
2023-03-29T22:40:35.952Z,6.57
2023-03-29T22:43:04.715Z,6.63
2023-03-29T22:45:31.425Z,6.67
2023-03-29T22:47:57.574Z,6.41
2023-03-29T22:50:23.778Z,6.43
2023-03-29T22:52:50.002Z,6.55
2023-03-29T22:55:16.202Z,6.32
2023-03-29T22:57:42.290Z,6.17
2023-03-29T23:00:08.421Z,6.11
2023-03-29T23:02:34.905Z,6.05
2023-03-29T23:05:01.054Z,6.03
2023-03-29T23:07:27.167Z,6.11
2023-03-29T23:09:53.392Z,6.07
2023-03-29T23:12:19.537Z,5.95
2023-03-29T23:14:45.645Z,6.04
2023-03-29T23:17:11.765Z,6.05
2023-03-29T23:19:37.856Z,6.12
2023-03-29T23:22:04.105Z,6.17
2023-03-29T23:24:30.216Z,6.08
2023-03-29T23:26:56.316Z,6.34
2023-03-29T23:29:22.423Z,6.74
2023-03-29T23:31:48.581Z,6.51
2023-03-29T23:34:14.779Z,6.36
2023-03-29T23:36:40.887Z,6.57
2023-03-29T23:39:07.012Z,6.39
2023-03-29T23:41:33.107Z,6.74
2023-03-29T23:43:59.207Z,6.61
2023-03-29T23:46:25.335Z,6.76
2023-03-29T23:48:51.613Z,6.67
2023-03-29T23:51:17.765Z,6.83
2023-03-29T23:53:43.882Z,6.86
2023-03-29T23:56:11.221Z,6.79
2023-03-29T23:58:37.321Z,6.91
